Time;durP1;ratioP1;P1;durP2;ratioP2;P2;SDS_P1;SDS_P2;PMS_P1;PMS_P2;Temp;Humidity;BMP_temperature;BMP_pressure;BME280_temperature;BME280_humidity;BME280_pressure;Samples;Min_cycle;Max_cycle;Signal;HPM_P1;HPM_P2
2023/05/18 00:00:28;;;;;;;5.67;3.73;;;;;;;13.24;100.00;98737.03;5093682;28;20206;-73
2023/05/18 00:02:56;;;;;;;5.33;3.70;;;;;;;13.21;100.00;98737.31;5093611;28;20208;-67
2023/05/18 00:05:26;;;;;;;4.40;2.80;;;;;;;13.29;100.00;98736.63;5093643;28;20194;-68
2023/05/18 00:07:53;;;;;;;3.13;2.40;;;;;;;13.37;100.00;98734.19;5093833;28;21099;-68
2023/05/18 00:10:19;;;;;;;4.67;3.27;;;;;;;13.46;100.00;98737.72;5094237;28;20201;-74
2023/05/18 00:12:46;;;;;;;3.80;2.97;;;;;;;13.46;100.00;98737.72;5093351;28;20684;-67
2023/05/18 00:15:13;;;;;;;5.33;3.00;;;;;;;13.41;100.00;98737.31;5093578;28;20198;-73
2023/05/18 00:17:41;;;;;;;5.63;3.17;;;;;;;13.44;100.00;98734.47;5093703;28;20207;-68
2023/05/18 00:20:09;;;;;;;4.73;2.70;;;;;;;13.47;100.00;98729.88;5093591;28;20240;-73
2023/05/18 00:22:38;;;;;;;4.60;3.03;;;;;;;13.51;100.00;98727.84;5093313;28;20246;-67
2023/05/18 00:25:05;;;;;;;5.33;2.90;;;;;;;13.48;100.00;98735.81;5093335;28;20220;-73
2023/05/18 00:27:32;;;;;;;6.87;3.27;;;;;;;13.38;100.00;98740.16;5093408;28;20202;-73
2023/05/18 00:29:58;;;;;;;3.73;2.93;;;;;;;13.28;100.00;98729.91;5093220;28;20220;-72
2023/05/18 00:32:25;;;;;;;5.43;3.33;;;;;;;13.36;100.00;98738.53;5093067;28;20271;-73
2023/05/18 00:34:52;;;;;;;4.87;3.60;;;;;;;13.30;100.00;98740.84;5093401;28;20297;-67
2023/05/18 00:37:19;;;;;;;4.07;2.87;;;;;;;13.40;100.00;98743.41;5093393;28;20205;-73
2023/05/18 00:39:47;;;;;;;5.63;3.47;;;;;;;13.42;100.00;98746.66;5093185;28;20211;-68
2023/05/18 00:42:14;;;;;;;8.53;3.07;;;;;;;13.31;100.00;98745.81;5092983;28;20194;-67
2023/05/18 00:44:41;;;;;;;5.67;3.20;;;;;;;13.26;100.00;98742.84;5092849;28;20230;-73
2023/05/18 00:47:08;;;;;;;4.77;3.23;;;;;;;13.29;100.00;98742.59;5093362;28;20194;-74
2023/05/18 00:49:35;;;;;;;3.27;2.73;;;;;;;13.38;100.00;98755.56;5092734;28;20212;-67
2023/05/18 00:52:03;;;;;;;6.17;3.63;;;;;;;13.31;100.00;98750.97;5093165;28;20665;-67
2023/05/18 00:54:31;;;;;;;3.83;3.03;;;;;;;13.31;100.00;98750.97;5092841;28;20239;-73
2023/05/18 00:57:01;;;;;;;3.33;3.03;;;;;;;13.38;100.00;98760.69;5092890;28;20206;-73
2023/05/18 00:59:28;;;;;;;4.70;3.43;;;;;;;13.43;100.00;98764.47;5092643;28;20211;-73
2023/05/18 01:01:55;;;;;;;4.63;2.60;;;;;;;13.44;100.00;98766.09;5092793;28;20202;-68
2023/05/18 01:04:23;;;;;;;4.23;2.63;;;;;;;13.47;100.00;98765.03;5092608;28;20221;-67
2023/05/18 01:06:55;;;;;;;4.30;2.97;;;;;;;13.43;100.00;98763.66;5092512;28;20204;-73
2023/05/18 01:09:23;;;;;;;6.00;3.40;;;;;;;13.46;100.00;98768.53;5092599;28;20260;-67
2023/05/18 01:11:59;;;;;;;3.40;2.60;;;;;;;13.50;100.00;98765.56;5092987;28;20299;-73
2023/05/18 01:14:32;;;;;;;3.50;2.47;;;;;;;13.50;100.00;98762.19;5092277;28;20708;-67
2023/05/18 01:17:10;;;;;;;6.17;3.17;;;;;;;13.41;100.00;98766.38;5092457;28;20251;-73
2023/05/18 01:20:11;;;;;;;5.57;3.30;;;;;;;13.42;100.00;98773.13;5092484;28;20226;-73
2023/05/18 01:22:50;;;;;;;4.03;3.30;;;;;;;13.39;100.00;98763.13;5086876;28;20209;-68
2023/05/18 01:25:28;;;;;;;4.73;3.00;;;;;;;13.41;100.00;98770.69;5092531;28;20205;-74
2023/05/18 01:28:04;;;;;;;4.73;2.83;;;;;;;13.40;100.00;98774.22;5092073;28;20692;-73
2023/05/18 01:30:33;;;;;;;4.20;3.43;;;;;;;13.46;100.00;98778.78;5092150;28;20194;-73
2023/05/18 01:33:00;;;;;;;4.87;3.40;;;;;;;13.34;100.00;98776.38;5092095;28;20200;-67
2023/05/18 01:35:27;;;;;;;3.57;3.07;;;;;;;13.33;100.00;98774.75;5092409;28;20200;-74
2023/05/18 01:37:54;;;;;;;3.70;2.90;;;;;;;13.34;100.00;98776.38;5092233;28;20201;-68
2023/05/18 01:40:21;;;;;;;5.47;3.20;;;;;;;13.34;100.00;98766.09;5092154;28;20197;-73
2023/05/18 01:42:56;;;;;;;5.17;3.17;;;;;;;13.40;100.00;98774.22;5091820;28;20205;-73
2023/05/18 01:45:29;;;;;;;9.07;2.63;;;;;;;13.41;100.00;98771.53;5092044;28;20216;-67
2023/05/18 01:47:59;;;;;;;5.80;3.03;;;;;;;13.30;100.00;98769.91;5091997;28;20244;-67
2023/05/18 01:50:36;;;;;;;3.37;2.60;;;;;;;13.27;100.00;98770.16;5092045;28;20201;-68
2023/05/18 01:53:08;;;;;;;6.80;3.10;;;;;;;13.32;100.00;98768.00;5091590;28;20227;-67
2023/05/18 01:55:36;;;;;;;4.53;3.13;;;;;;;13.22;100.00;98767.16;5091841;28;20688;-68
2023/05/18 01:58:06;;;;;;;5.10;2.57;;;;;;;13.14;100.00;98759.31;5091586;28;20228;-73
2023/05/18 02:00:35;;;;;;;4.80;2.90;;;;;;;13.28;100.00;98766.66;5091406;28;20200;-73
2023/05/18 02:03:02;;;;;;;4.90;3.70;;;;;;;13.13;100.00;98765.41;5091542;28;20277;-68
2023/05/18 02:05:29;;;;;;;3.77;2.53;;;;;;;13.24;100.00;98765.28;5091627;28;20236;-68
2023/05/18 02:07:56;;;;;;;8.03;3.30;;;;;;;13.23;100.00;98770.53;5091386;28;20629;-73
2023/05/18 02:10:22;;;;;;;4.23;3.20;;;;;;;13.10;100.00;98770.81;5091399;28;21238;-73
2023/05/18 02:12:51;;;;;;;5.10;3.37;;;;;;;13.07;100.00;98773.66;5091411;28;20200;-73
2023/05/18 02:15:18;;;;;;;4.23;3.17;;;;;;;13.10;100.00;98781.06;5091527;28;20286;-69
2023/05/18 02:17:46;;;;;;;3.90;2.93;;;;;;;13.18;100.00;98783.78;5091037;28;20204;-73
2023/05/18 02:20:17;;;;;;;4.23;3.10;;;;;;;13.09;100.00;98787.16;5090703;28;20196;-74
2023/05/18 02:22:45;;;;;;;4.83;3.57;;;;;;;13.07;100.00;98783.91;5091004;28;20208;-68
2023/05/18 02:25:12;;;;;;;3.60;2.70;;;;;;;13.17;100.00;98784.72;5091346;28;20200;-67
2023/05/18 02:27:39;;;;;;;4.23;3.30;;;;;;;13.20;100.00;98784.44;5090893;28;20202;-74
2023/05/18 02:30:07;;;;;;;5.90;3.27;;;;;;;13.16;100.00;98777.16;5091463;28;20221;-67
2023/05/18 02:32:37;;;;;;;4.87;3.50;;;;;;;13.10;100.00;98786.22;5091152;28;20202;-73
2023/05/18 02:35:06;;;;;;;3.10;2.50;;;;;;;13.12;100.00;98781.75;5090871;28;20243;-68
2023/05/18 02:37:38;;;;;;;8.97;3.40;;;;;;;13.16;100.00;98788.25;5091004;28;20258;-73
2023/05/18 02:40:07;;;;;;;3.13;2.80;;;;;;;13.08;100.00;98785.53;5090849;28;20214;-67
2023/05/18 02:42:34;;;;;;;3.83;2.87;;;;;;;13.06;100.00;98787.41;5090689;28;20200;-73
2023/05/18 02:45:01;;;;;;;3.70;2.57;;;;;;;13.13;100.00;98793.63;5090744;28;20232;-68
2023/05/18 02:47:28;;;;;;;7.40;3.57;;;;;;;13.09;100.00;98792.31;5090745;28;20248;-73
2023/05/18 02:49:55;;;;;;;3.90;2.27;;;;;;;13.07;100.00;98795.00;5090712;28;20221;-74
2023/05/18 02:52:23;;;;;;;6.43;3.23;;;;;;;13.01;100.00;98794.72;5090769;28;20207;-73
2023/05/18 02:54:50;;;;;;;10.10;4.00;;;;;;;13.07;100.00;98799.31;5090413;28;20263;-67
2023/05/18 02:57:16;;;;;;;3.83;3.27;;;;;;;12.95;100.00;98796.06;5090438;28;20199;-73
2023/05/18 02:59:43;;;;;;;4.77;3.30;;;;;;;12.94;100.00;98809.00;5090271;28;20228;-68
2023/05/18 03:02:13;;;;;;;5.30;3.07;;;;;;;12.97;100.00;98813.88;5090662;28;20200;-68
2023/05/18 03:04:40;;;;;;;4.73;3.27;;;;;;;12.98;100.00;98807.81;5090452;28;20213;-68
2023/05/18 03:07:07;;;;;;;6.00;3.77;;;;;;;12.87;100.00;98814.66;5090376;28;20258;-74
2023/05/18 03:09:35;;;;;;;3.97;3.10;;;;;;;12.97;100.00;98811.31;5090313;28;20215;-73
2023/05/18 03:12:02;;;;;;;4.57;2.97;;;;;;;13.06;100.00;98813.06;5090323;28;20208;-68
2023/05/18 03:14:28;;;;;;;3.47;2.90;;;;;;;12.97;100.00;98819.00;5090358;28;20240;-74
2023/05/18 03:16:56;;;;;;;3.30;2.47;;;;;;;13.10;100.00;98829.84;5090205;28;20195;-73
2023/05/18 03:19:23;;;;;;;3.97;3.13;;;;;;;13.12;100.00;98827.97;5090196;28;20271;-68
2023/05/18 03:21:49;;;;;;;4.13;2.97;;;;;;;13.09;100.00;98826.47;5090373;28;20200;-74
2023/05/18 03:24:16;;;;;;;5.30;3.30;;;;;;;13.19;100.00;98834.16;5089886;28;20715;-73
2023/05/18 03:26:45;;;;;;;3.57;2.27;;;;;;;13.13;100.00;98839.84;5090041;28;20203;-74
2023/05/18 03:29:12;;;;;;;4.73;3.80;;;;;;;13.12;100.00;98843.38;5089504;28;20235;-68
2023/05/18 03:31:39;;;;;;;6.47;3.73;;;;;;;13.09;100.00;98848.78;5089730;28;20205;-68
2023/05/18 03:34:06;;;;;;;3.83;2.80;;;;;;;13.12;100.00;98845.94;5089198;28;20230;-73
2023/05/18 03:36:34;;;;;;;7.10;3.47;;;;;;;13.26;100.00;98848.13;5089833;28;20196;-68
2023/05/18 03:39:01;;;;;;;8.33;3.63;;;;;;;13.15;100.00;98855.94;5089900;28;20213;-74
2023/05/18 03:41:28;;;;;;;3.03;2.73;;;;;;;13.27;100.00;98857.47;5090046;28;20204;-67
2023/05/18 03:43:56;;;;;;;4.87;2.83;;;;;;;13.18;100.00;98863.38;5089754;28;20228;-68
2023/05/18 03:46:23;;;;;;;4.67;3.10;;;;;;;13.18;100.00;98860.81;5089931;28;20282;-68
2023/05/18 03:48:52;;;;;;;5.40;2.93;;;;;;;13.17;100.00;98861.72;5089893;28;20278;-73
2023/05/18 03:51:19;;;;;;;3.57;2.83;;;;;;;13.26;100.00;98867.84;5089823;28;20220;-68
2023/05/18 03:53:47;;;;;;;2.73;2.43;;;;;;;13.27;100.00;98867.72;5089741;28;20217;-74
2023/05/18 03:56:14;;;;;;;3.33;2.57;;;;;;;13.30;100.00;98862.31;5089781;28;20202;-73
2023/05/18 03:58:41;;;;;;;12.80;3.50;;;;;;;13.28;100.00;98871.09;5089541;28;20254;-71
2023/05/18 04:01:09;;;;;;;5.03;2.80;;;;;;;13.37;100.00;98867.72;5090090;28;20250;-73
2023/05/18 04:03:36;;;;;;;4.33;3.17;;;;;;;13.26;100.00;98870.41;5089490;28;20308;-68
2023/05/18 04:06:03;;;;;;;7.07;4.00;;;;;;;13.24;100.00;98867.97;5089794;28;20612;-68
2023/05/18 04:08:33;;;;;;;3.93;2.97;;;;;;;13.22;100.00;98874.97;5089560;28;20231;-74
2023/05/18 04:11:00;;;;;;;6.47;3.80;;;;;;;13.24;100.00;98878.22;5089642;28;20208;-72
2023/05/18 04:13:26;;;;;;;5.07;3.23;;;;;;;13.24;100.00;98877.44;5089912;28;20229;-68
2023/05/18 04:15:53;;;;;;;6.80;3.73;;;;;;;13.17;100.00;98874.56;5089442;28;20232;-68
2023/05/18 04:18:21;;;;;;;8.40;4.07;;;;;;;13.17;100.00;98872.00;5089355;28;20221;-73
2023/05/18 04:20:48;;;;;;;3.37;2.67;;;;;;;13.10;100.00;98886.31;5089831;28;20201;-68
2023/05/18 04:23:15;;;;;;;5.00;3.50;;;;;;;13.08;100.00;98888.19;5089222;28;20309;-74
2023/05/18 04:25:42;;;;;;;5.30;3.83;;;;;;;13.13;100.00;98891.19;5089360;28;20242;-73
2023/05/18 04:28:09;;;;;;;4.27;3.53;;;;;;;13.17;100.00;98902.78;5089347;28;20316;-68
2023/05/18 04:30:37;;;;;;;4.77;3.27;;;;;;;13.19;100.00;98893.22;5089620;28;20200;-74
2023/05/18 04:33:05;;;;;;;4.23;3.00;;;;;;;13.20;100.00;98902.53;5089380;28;20214;-68
2023/05/18 04:35:33;;;;;;;5.73;3.20;;;;;;;13.19;100.00;98911.19;5089583;28;20286;-68
2023/05/18 04:38:01;;;;;;;5.33;3.67;;;;;;;13.04;100.00;98912.50;5089364;28;20205;-73
2023/05/18 04:40:28;;;;;;;6.00;3.60;;;;;;;13.14;100.00;98903.06;5089794;28;20204;-68
2023/05/18 04:42:54;;;;;;;5.27;3.70;;;;;;;13.00;100.00;98917.09;5089196;28;20205;-73
2023/05/18 04:45:21;;;;;;;3.03;2.43;;;;;;;13.16;100.00;98915.78;5093033;28;20199;-73
2023/05/18 04:47:52;;;;;;;4.87;3.03;;;;;;;13.20;100.00;98919.69;5093330;28;20210;-68
2023/05/18 04:50:22;;;;;;;7.37;3.43;;;;;;;13.20;100.00;98930.78;5093335;28;20258;-74
2023/05/18 04:52:51;;;;;;;3.97;2.33;;;;;;;13.21;100.00;98926.47;5093149;28;20212;-68
2023/05/18 04:55:24;;;;;;;6.43;4.07;;;;;;;13.24;100.00;98932.16;5092768;28;20235;-68
2023/05/18 04:57:52;;;;;;;4.60;3.13;;;;;;;13.23;100.00;98933.06;5092978;28;20620;-74
2023/05/18 05:00:20;;;;;;;3.77;3.00;;;;;;;13.35;100.00;98937.22;5093133;28;20235;-74
2023/05/18 05:02:47;;;;;;;4.40;3.27;;;;;;;13.36;100.00;98933.69;5093079;28;20194;-71
2023/05/18 05:05:14;;;;;;;5.57;3.73;;;;;;;13.48;100.00;98936.16;5092473;28;20635;-74
2023/05/18 05:07:40;;;;;;;4.13;3.30;;;;;;;13.43;100.00;98940.84;5092745;28;20713;-71
2023/05/18 05:10:09;;;;;;;4.73;3.57;;;;;;;13.47;100.00;98940.47;5092857;28;20197;-74
2023/05/18 05:12:37;;;;;;;4.73;3.60;;;;;;;13.46;100.00;98943.16;5092801;28;20629;-67
2023/05/18 05:15:04;;;;;;;3.80;3.00;;;;;;;13.57;100.00;98951.56;5092782;28;20285;-68
2023/05/18 05:17:31;;;;;;;5.17;3.17;;;;;;;13.55;100.00;98947.50;5092499;28;20256;-71
2023/05/18 05:19:57;;;;;;;4.93;3.50;;;;;;;13.53;100.00;98960.50;5092177;28;20265;-74
2023/05/18 05:22:24;;;;;;;4.27;2.80;;;;;;;13.62;100.00;98958.88;5092503;28;20208;-74
2023/05/18 05:24:51;;;;;;;3.33;2.80;;;;;;;13.79;100.00;98965.94;5092543;28;20232;-70
2023/05/18 05:27:19;;;;;;;5.13;3.23;;;;;;;13.89;100.00;98965.94;5092241;28;20200;-74
2023/05/18 05:29:47;;;;;;;5.57;2.97;;;;;;;13.96;100.00;98967.03;5092078;28;20218;-73
2023/05/18 05:32:13;;;;;;;3.23;2.93;;;;;;;14.10;100.00;98983.78;5092374;28;20198;-68
2023/05/18 05:34:44;;;;;;;6.17;3.97;;;;;;;14.20;100.00;98974.31;5092009;28;20233;-68
2023/05/18 05:37:11;;;;;;;4.97;3.20;;;;;;;14.35;100.00;98981.63;5092497;28;20662;-74
2023/05/18 05:39:37;;;;;;;4.73;2.97;;;;;;;14.40;100.00;98990.53;5092174;28;20219;-73
2023/05/18 05:42:04;;;;;;;4.93;3.53;;;;;;;14.53;100.00;98998.00;5092457;28;20199;-68
2023/05/18 05:44:32;;;;;;;9.23;3.57;;;;;;;14.59;100.00;98994.84;5092035;28;20601;-74
2023/05/18 05:46:59;;;;;;;6.10;3.47;;;;;;;14.52;100.00;99006.66;5091793;28;20194;-73
2023/05/18 05:49:26;;;;;;;5.83;3.67;;;;;;;14.67;100.00;99017.34;5091786;28;20223;-74
2023/05/18 05:51:53;;;;;;;7.23;3.13;;;;;;;14.66;100.00;99020.84;5091976;28;20343;-73
2023/05/18 05:54:20;;;;;;;5.67;3.30;;;;;;;14.71;100.00;99009.19;5091774;28;20232;-68
2023/05/18 05:56:47;;;;;;;4.77;3.07;;;;;;;14.76;100.00;99023.41;5090748;28;20218;-73
2023/05/18 05:59:14;;;;;;;4.30;3.47;;;;;;;14.85;100.00;99031.09;5091812;28;20283;-68
2023/05/18 06:01:42;;;;;;;6.17;3.47;;;;;;;15.01;100.00;99029.69;5091379;28;20200;-68
2023/05/18 06:04:11;;;;;;;7.47;3.83;;;;;;;14.91;100.00;99035.69;5091584;28;20638;-73
2023/05/18 06:06:38;;;;;;;9.57;3.00;;;;;;;14.80;100.00;99046.13;5091451;28;20638;-74
2023/05/18 06:09:04;;;;;;;4.93;3.33;;;;;;;14.85;100.00;99040.59;5091516;28;20303;-68
2023/05/18 06:11:31;;;;;;;6.07;3.73;;;;;;;14.97;100.00;99049.75;5091651;28;20199;-73
2023/05/18 06:13:58;;;;;;;5.00;2.80;;;;;;;15.05;100.00;99051.66;5091326;28;20272;-74
2023/05/18 06:16:25;;;;;;;6.33;3.27;;;;;;;15.14;100.00;99046.47;5091221;28;20260;-68
2023/05/18 06:18:53;;;;;;;4.20;3.03;;;;;;;15.17;100.00;99046.19;5091255;28;20280;-74
2023/05/18 06:21:20;;;;;;;4.93;3.23;;;;;;;15.21;100.00;99049.28;5091375;28;20206;-73
2023/05/18 06:23:47;;;;;;;6.40;2.70;;;;;;;15.14;100.00;99035.34;5091013;28;20720;-73
2023/05/18 06:26:14;;;;;;;4.93;3.00;;;;;;;15.26;100.00;99044.53;5091333;28;20202;-73
2023/05/18 06:28:41;;;;;;;4.30;2.87;;;;;;;15.38;100.00;99047.72;5090686;28;20251;-68
2023/05/18 06:31:08;;;;;;;4.53;2.80;;;;;;;15.30;100.00;99047.63;5090963;28;20259;-68
2023/05/18 06:33:35;;;;;;;5.90;3.40;;;;;;;15.34;100.00;99051.56;5090919;28;20225;-69
2023/05/18 06:36:03;;;;;;;3.37;2.67;;;;;;;15.23;100.00;99051.72;5091008;28;20238;-73
2023/05/18 06:38:30;;;;;;;5.13;3.07;;;;;;;15.14;100.00;99056.75;5090780;28;20221;-73
2023/05/18 06:40:57;;;;;;;4.63;2.97;;;;;;;15.02;100.00;99052.75;5090923;28;20201;-73
2023/05/18 06:43:25;;;;;;;5.47;3.03;;;;;;;15.15;100.00;99053.25;5090781;28;20243;-72
2023/05/18 06:45:52;;;;;;;4.37;2.67;;;;;;;15.16;100.00;99057.44;5090679;28;20339;-69
2023/05/18 06:48:19;;;;;;;4.60;2.87;;;;;;;15.12;100.00;99063.81;5090687;28;20272;-73
2023/05/18 06:50:46;;;;;;;4.40;2.27;;;;;;;15.27;100.00;99061.63;5090477;28;20719;-68
2023/05/18 06:53:14;;;;;;;3.20;2.33;;;;;;;15.27;100.00;99056.47;5090630;28;20619;-69
2023/05/18 06:55:41;;;;;;;3.93;2.90;;;;;;;15.37;100.00;99064.94;5090403;28;20309;-68
2023/05/18 06:58:07;;;;;;;3.43;2.07;;;;;;;15.50;100.00;99067.19;5090483;28;20215;-73
2023/05/18 07:00:34;;;;;;;3.63;2.60;;;;;;;15.70;100.00;99073.09;5091052;28;20255;-68
2023/05/18 07:03:02;;;;;;;3.07;2.23;;;;;;;15.44;100.00;99078.06;5090860;28;20199;-73
2023/05/18 07:05:29;;;;;;;4.00;2.67;;;;;;;15.52;100.00;99085.91;5090572;28;20654;-68
2023/05/18 07:07:55;;;;;;;3.37;2.30;;;;;;;15.79;100.00;99076.56;5090163;28;20208;-68
2023/05/18 07:10:24;;;;;;;4.73;2.60;;;;;;;15.80;100.00;99086.75;5090553;28;20197;-68
2023/05/18 07:12:51;;;;;;;3.93;2.87;;;;;;;15.70;100.00;99093.72;5090181;28;20220;-74
2023/05/18 07:15:18;;;;;;;5.23;2.93;;;;;;;15.67;100.00;99093.16;5090459;28;20312;-68
2023/05/18 07:17:45;;;;;;;4.33;2.47;;;;;;;15.82;100.00;99102.06;5090126;28;20392;-68
2023/05/18 07:20:12;;;;;;;2.47;1.90;;;;;;;15.69;100.00;99104.19;5090552;28;20208;-73
2023/05/18 07:22:39;;;;;;;5.20;2.60;;;;;;;15.40;100.00;99108.47;5089924;28;20330;-68
2023/05/18 07:25:06;;;;;;;4.13;2.50;;;;;;;15.44;100.00;99109.00;5090176;28;20305;-68
2023/05/18 07:27:34;;;;;;;5.30;2.70;;;;;;;15.58;100.00;99105.94;5089826;28;20262;-68
2023/05/18 07:30:01;;;;;;;2.87;2.30;;;;;;;15.69;100.00;99104.19;5089462;28;20228;-68
2023/05/18 07:32:28;;;;;;;3.47;2.00;;;;;;;15.46;100.00;99112.25;5088703;28;20205;-68
2023/05/18 07:34:54;;;;;;;6.97;1.90;;;;;;;15.64;100.00;99109.72;5089659;28;20218;-68
2023/05/18 07:37:21;;;;;;;3.87;2.37;;;;;;;15.84;100.00;99115.63;5090556;28;20644;-68
2023/05/18 07:39:48;;;;;;;5.90;2.03;;;;;;;15.82;100.00;99122.69;5088709;28;20217;-73
2023/05/18 07:42:15;;;;;;;2.20;1.60;;;;;;;15.81;100.00;99126.22;5089571;28;20251;-68
2023/05/18 07:44:43;;;;;;;3.33;2.10;;;;;;;15.96;100.00;99132.53;5090085;28;20226;-71
2023/05/18 07:47:10;;;;;;;8.40;2.27;;;;;;;15.88;100.00;99141.94;5089463;28;20198;-68
2023/05/18 07:49:38;;;;;;;3.43;2.17;;;;;;;16.01;100.00;99143.22;5089377;28;20219;-73
2023/05/18 07:52:07;;;;;;;3.33;2.30;;;;;;;16.06;100.00;99135.88;5089501;28;20200;-73
2023/05/18 07:54:34;;;;;;;2.73;2.00;;;;;;;15.98;100.00;99146.09;5089569;28;20219;-73
2023/05/18 07:57:00;;;;;;;2.50;1.93;;;;;;;16.02;100.00;99154.34;5089331;28;20689;-73
2023/05/18 07:59:27;;;;;;;6.90;2.50;;;;;;;16.12;100.00;99160.28;5089671;28;20231;-68
2023/05/18 08:01:57;;;;;;;3.47;2.00;;;;;;;16.14;100.00;99167.84;5089606;28;20201;-73
2023/05/18 08:04:24;;;;;;;2.50;2.00;;;;;;;15.93;100.00;99171.50;5089408;28;20227;-73
2023/05/18 08:06:53;;;;;;;2.83;2.23;;;;;;;16.05;100.00;99165.19;5089727;28;20203;-68
2023/05/18 08:09:20;;;;;;;6.33;2.23;;;;;;;16.14;100.00;99175.59;5088849;28;20237;-68
2023/05/18 08:11:49;;;;;;;2.57;1.83;;;;;;;16.04;100.00;99179.03;5088801;28;20212;-73
2023/05/18 08:14:16;;;;;;;3.07;2.10;;;;;;;15.94;100.00;99178.28;5089570;28;20765;-69
2023/05/18 08:16:43;;;;;;;2.67;1.90;;;;;;;16.00;100.00;99177.72;5089529;28;20265;-68
2023/05/18 08:19:11;;;;;;;2.10;1.77;;;;;;;16.09;100.00;99172.66;5090900;28;20269;-73
2023/05/18 08:21:38;;;;;;;3.03;2.13;;;;;;;16.12;100.00;99169.78;5093531;28;20638;-73
2023/05/18 08:24:06;;;;;;;4.00;2.33;;;;;;;16.16;100.00;99171.91;5093278;28;20215;-68
2023/05/18 08:26:33;;;;;;;3.03;2.00;;;;;;;16.14;100.00;99178.19;5093581;28;20630;-67
2023/05/18 08:28:59;;;;;;;2.83;2.37;;;;;;;16.27;100.00;99181.25;5093349;28;20217;-75
2023/05/18 08:31:26;;;;;;;3.20;2.00;;;;;;;16.34;100.00;99179.69;5093436;28;20434;-73
2023/05/18 08:33:53;;;;;;;2.90;2.27;;;;;;;16.31;100.00;99192.88;5093355;28;20835;-73
2023/05/18 08:36:21;;;;;;;2.80;2.23;;;;;;;16.24;100.00;99204.75;5093459;28;20263;-68
2023/05/18 08:38:48;;;;;;;6.07;2.27;;;;;;;16.19;100.00;99197.44;5093165;28;20226;-68
2023/05/18 08:41:21;;;;;;;3.63;2.20;;;;;;;16.22;100.00;99204.88;5093265;28;20207;-73
2023/05/18 08:43:53;;;;;;;3.00;1.93;;;;;;;16.35;100.00;99207.13;5092877;28;20238;-68
2023/05/18 08:46:21;;;;;;;4.33;2.10;;;;;;;16.36;100.00;99208.75;5093196;28;20195;-73
2023/05/18 08:48:51;;;;;;;3.97;2.00;;;;;;;16.62;100.00;99208.06;5093196;28;20229;-68
2023/05/18 08:51:21;;;;;;;3.23;2.00;;;;;;;16.69;100.00;99219.41;5093026;28;20200;-73
2023/05/18 08:53:53;;;;;;;3.53;2.00;;;;;;;16.86;100.00;99221.22;5093010;28;20608;-73
2023/05/18 08:56:22;;;;;;;4.27;2.10;;;;;;;17.07;100.00;99217.50;5093086;28;20226;-68
2023/05/18 08:58:52;;;;;;;3.20;2.00;;;;;;;17.14;100.00;99221.94;5092862;28;20221;-68
2023/05/18 09:01:19;;;;;;;3.83;2.17;;;;;;;16.87;100.00;99215.09;5092862;28;20206;-74
2023/05/18 09:03:48;;;;;;;5.27;2.37;;;;;;;16.74;100.00;99207.69;5092864;28;20300;-68
2023/05/18 09:06:16;;;;;;;2.83;1.67;;;;;;;16.74;100.00;99201.72;5092990;28;20202;-75
2023/05/18 09:08:46;;;;;;;2.13;1.60;;;;;;;17.00;100.00;99213.91;5092418;28;20218;-75
2023/05/18 09:11:13;;;;;;;2.93;1.90;;;;;;;16.88;100.00;99210.75;5092820;28;20630;-70
2023/05/18 09:13:40;;;;;;;6.80;2.10;;;;;;;16.39;100.00;99207.66;5092635;28;20232;-70
2023/05/18 09:16:07;;;;;;;4.73;1.80;;;;;;;16.19;100.00;99212.09;5092527;28;20244;-70
2023/05/18 09:18:34;;;;;;;2.33;1.80;;;;;;;16.71;100.00;99217.50;5092289;28;20218;-74
2023/05/18 09:21:01;;;;;;;3.60;2.00;;;;;;;16.67;100.00;99227.31;5092638;28;20194;-70
2023/05/18 09:23:28;;;;;;;2.57;1.60;;;;;;;16.86;100.00;99220.41;5092333;28;20222;-74
2023/05/18 09:25:58;;;;;;;2.33;2.00;;;;;;;17.28;100.00;99220.59;5092328;28;20196;-70
2023/05/18 09:28:26;;;;;;;4.03;2.07;;;;;;;17.36;100.00;99214.66;5092304;28;20224;-70
2023/05/18 09:30:53;;;;;;;1.97;1.43;;;;;;;17.59;100.00;99202.84;5090717;28;20737;-72
2023/05/18 09:33:22;;;;;;;1.63;1.17;;;;;;;17.70;100.00;99196.63;5092195;28;20600;-70
2023/05/18 09:35:50;;;;;;;2.17;1.63;;;;;;;17.34;100.00;99185.59;5092281;28;20625;-70
2023/05/18 09:38:20;;;;;;;5.83;1.60;;;;;;;17.50;100.00;99192.63;5091994;28;20272;-72
2023/05/18 09:40:48;;;;;;;2.03;1.37;;;;;;;17.34;100.00;99199.31;5091964;28;20246;-70
2023/05/18 09:43:17;;;;;;;3.20;1.60;;;;;;;17.12;100.00;99210.94;5091887;28;20319;-70
2023/05/18 09:45:45;;;;;;;2.07;1.60;;;;;;;16.95;100.00;99217.72;5092110;28;20200;-72
2023/05/18 09:48:13;;;;;;;1.90;1.57;;;;;;;16.97;100.00;99221.00;5091942;28;20225;-75
2023/05/18 09:50:40;;;;;;;1.60;1.20;;;;;;;17.13;100.00;99217.75;5091806;28;20666;-70
2023/05/18 09:53:08;;;;;;;2.10;1.57;;;;;;;17.45;100.00;99215.53;5091740;28;20221;-75
2023/05/18 09:55:38;;;;;;;2.47;1.50;;;;;;;17.50;100.00;99221.06;5092214;28;20286;-72
2023/05/18 09:58:07;;;;;;;2.87;2.03;;;;;;;17.49;100.00;99233.19;5091910;28;20249;-70
2023/05/18 10:00:41;;;;;;;1.53;1.23;;;;;;;17.77;100.00;99231.25;5091782;28;20199;-75
2023/05/18 10:03:17;;;;;;;2.83;1.80;;;;;;;17.89;100.00;99244.75;5091632;28;20306;-74
2023/05/18 10:05:44;;;;;;;2.47;1.80;;;;;;;17.91;100.00;99254.94;5091606;28;20207;-70
2023/05/18 10:08:13;;;;;;;2.50;1.70;;;;;;;17.93;100.00;99255.59;5091437;28;20215;-70
2023/05/18 10:10:41;;;;;;;2.83;1.50;;;;;;;18.13;100.00;99254.41;5091219;28;20247;-70
2023/05/18 10:13:08;;;;;;;1.77;1.50;;;;;;;18.05;100.00;99242.25;5091867;28;20232;-74
2023/05/18 10:15:36;;;;;;;1.27;1.17;;;;;;;18.16;100.00;99243.75;5091356;28;20232;-74
2023/05/18 10:18:07;;;;;;;2.93;1.83;;;;;;;18.09;100.00;99251.31;5091089;28;20238;-76
2023/05/18 10:20:34;;;;;;;6.13;2.90;;;;;;;18.27;100.00;99253.81;5091253;28;20198;-72
2023/05/18 10:23:05;;;;;;;3.40;2.20;;;;;;;18.28;100.00;99245.09;5091372;28;20582;-75
2023/05/18 10:25:33;;;;;;;4.30;1.90;;;;;;;18.21;100.00;99238.94;5091667;28;20668;-70
2023/05/18 10:28:06;;;;;;;3.20;2.23;;;;;;;18.22;100.00;99248.28;5091056;28;20204;-70
2023/05/18 10:30:34;;;;;;;2.27;1.80;;;;;;;18.21;100.00;99238.94;5090905;28;20204;-70
2023/05/18 10:33:05;;;;;;;3.77;1.90;;;;;;;18.23;100.00;99231.00;5090901;28;20208;-75
2023/05/18 10:35:33;;;;;;;5.67;1.73;;;;;;;18.42;100.00;99235.09;5091086;28;20565;-69
2023/05/18 10:38:01;;;;;;;4.73;2.20;;;;;;;18.42;100.00;99224.75;5090871;28;20228;-70
2023/05/18 10:40:28;;;;;;;4.63;2.00;;;;;;;18.27;100.00;99225.34;5091472;28;20650;-75
2023/05/18 10:42:57;;;;;;;4.47;1.73;;;;;;;18.38;100.00;99218.25;5090229;28;20609;-69
2023/05/18 10:45:25;;;;;;;2.43;1.80;;;;;;;18.33;100.00;99227.31;5091110;28;20709;-75
2023/05/18 10:47:53;;;;;;;5.83;2.20;;;;;;;18.37;100.00;99242.53;5090864;28;20294;-75
2023/05/18 10:50:23;;;;;;;3.50;2.27;;;;;;;18.22;100.00;99232.78;5091018;28;20315;-75
2023/05/18 10:52:51;;;;;;;1.63;1.53;;;;;;;18.53;100.00;99232.22;5090854;28;20703;-70
2023/05/18 10:55:19;;;;;;;6.27;1.70;;;;;;;18.55;100.00;99236.25;5090601;28;20216;-69
2023/05/18 10:57:51;;;;;;;1.77;1.37;;;;;;;18.76;100.00;99242.81;5090457;28;20677;-75
2023/05/18 11:00:19;;;;;;;2.13;1.63;;;;;;;18.83;100.00;99240.41;5090820;28;20590;-70
2023/05/18 11:02:47;;;;;;;1.97;1.63;;;;;;;18.87;100.00;99239.91;5090351;28;20651;-75
2023/05/18 11:05:13;;;;;;;3.93;1.30;;;;;;;18.80;100.00;99245.91;5090444;28;20203;-69
2023/05/18 11:07:45;;;;;;;2.17;1.33;;;;;;;18.90;99.83;99243.97;5090309;28;20248;-70
2023/05/18 11:10:13;;;;;;;3.17;1.70;;;;;;;18.84;99.16;99244.59;5090440;28;20206;-75
2023/05/18 11:12:41;;;;;;;2.90;1.47;;;;;;;18.68;99.90;99248.75;5090217;28;20210;-74
2023/05/18 11:15:09;;;;;;;2.33;1.40;;;;;;;18.74;100.00;99245.56;5090424;28;20297;-69
2023/05/18 11:17:36;;;;;;;2.90;1.57;;;;;;;18.86;100.00;99253.03;5090026;28;20228;-74
2023/05/18 11:20:25;;;;;;;2.50;1.33;;;;;;;18.69;98.93;99247.78;5089886;28;20221;-69
2023/05/18 11:23:02;;;;;;;1.40;1.10;;;;;;;18.67;100.00;99247.13;5085600;28;20209;-74
2023/05/18 11:25:45;;;;;;;1.20;1.10;;;;;;;18.91;93.13;99250.78;5090306;28;20208;-70
2023/05/18 11:28:13;;;;;;;1.50;1.30;;;;;;;18.90;92.72;99243.97;5089751;28;20225;-69